Fort Myers, FL

11:39 PM EDT on August 28, 2014 (GMT -0400)
Southwest Florida International | Change Station
CLOSE
Current Station
Airport
Location: Fort Myers Airport,
Elevation: 30 ft
Nearby Weather Stations

Elev 30 ft 26.54 °N, 81.76 °W | Updated 46 minutes ago

Overcast
Overcast
77 °F
Feels Like 77 °F
N
9
Wind Variable Wind from ESE

Today
High -- | Low -- °F
--% Chance of Precip.
Yesterday
High -- | Low -- °F
Precip. -- in
7:05 AM 7:51 PM
Waxing Crescent, 11% visible
Pressure 30.01 in
Visibility 10.0 miles
Clouds Few 2800 ft
Mostly Cloudy 7000 ft
Overcast 10000 ft
Dew Point 76 °F
Humidity 96%
Rainfall 1.05 in
Snow Depth Not available.
UV 0 out of 12
Pollen 5.00 out of 12
Air Quality Not available.
Flu Activity Not available.
METAR KRSW 290253Z 11008KT 10SM FEW028 BKN070 OVC100 25/24 A3001 RMK AO2 RAE38 SLP161 P0002 60007 T02500244 51014

More Conditions Fewer Conditions

Pressure 30.01 in
Visibility 10.0 miles
Clouds Few 2800 ft
Mostly Cloudy 7000 ft
Overcast 10000 ft
Dew Point 76 °F
Humidity 96%
Rainfall 1.05 in
Snow Depth Not available.
UV 0 out of 12
Pollen 5.00 out of 12
Air Quality Not available.
Flu Activity Not available.
METAR KRSW 290253Z 11008KT 10SM FEW028 BKN070 OVC100 25/24 A3001 RMK AO2 RAE38 SLP161 P0002 60007 T02500244 51014

More Conditions Fewer Conditions

10-Day Weather Forecast

Almanac

Astronomy

Aug. 28, 2014 Rise Set
Actual Time 7:05 AM EDT 7:51 PM EDT
Civil Twilight 6:41 AM EDT 8:14 PM EDT
Nautical Twilight 6:13 AM EDT 8:42 PM EDT
Astronomical Twilight 5:45 AM EDT 9:10 PM EDT
Moon 9:36 AM EDT (8/28) 9:36 PM EDT (8/28)
Length of Visible Light 13h 33m
Length of Day
12h 46m
Tomorrow will be 1m 29s shorter.
Waxing Crescent, 11% of the Moon is Illuminated
Today
Waxing Crescent
Sep 2
First Quarter
Sep 8
Full
Sep 15
Last Quarter
Sep 24
New

Today's Extremes

State Highs State Lows

Community

WunderPhotos

Upload Photos

1,748,175 photos uploaded!

Nearby

Snow Depth

Station Depth Elevation
No new snow has been reported.

Earthquake Activity

City Distance Mag. Time & Date
No recent earthquake activity has been reported nearby.
Minimum magnitude displayed is 2.5.

Coastal Water Temperatures

Place Temperature
Fort Myers, FL 88.0 °F

Nearby Weather Stations